Time;durP1;ratioP1;P1;durP2;ratioP2;P2;SDS_P1;SDS_P2;PMS_P1;PMS_P2;Temp;Humidity;BMP_temperature;BMP_pressure;BME280_temperature;BME280_humidity;BME280_pressure;Samples;Min_cycle;Max_cycle;Signal;HPM_P1;HPM_P2
2022/01/26 00:07:12;;;;;;;83.28;30.63;;;3.00;99.90;;;;;;6142448;23;20012;-95
2022/01/26 00:09:43;;;;;;;74.72;29.30;;;3.00;99.90;;;;;;6110449;23;20084;-95
2022/01/26 00:12:09;;;;;;;77.85;31.92;;;3.10;99.90;;;;;;6111618;23;20009;-94
2022/01/26 00:14:38;;;;;;;81.90;35.45;;;3.00;99.90;;;;;;6148048;23;20101;-94
2022/01/26 00:17:04;;;;;;;55.35;21.85;;;3.00;99.90;;;;;;6128840;23;20021;-95
2022/01/26 00:19:46;;;;;;;89.22;34.38;;;3.00;99.90;;;;;;6154469;23;20032;-95
2022/01/26 00:22:23;;;;;;;90.25;35.70;;;3.10;99.90;;;;;;6158037;23;20128;-95
2022/01/26 00:25:19;;;;;;;80.47;31.23;;;3.00;99.90;;;;;;6159959;23;20009;-94
2022/01/26 00:27:50;;;;;;;56.45;22.63;;;2.80;99.90;;;;;;6144273;23;20017;-94
2022/01/26 00:34:17;;;;;;;83.95;32.80;;;3.00;99.90;;;;;;6177834;23;19963;-93
2022/01/26 00:38:42;;;;;;;72.35;28.75;;;3.00;99.90;;;;;;6138569;23;20024;-94
2022/01/26 00:41:17;;;;;;;74.05;30.48;;;3.00;99.90;;;;;;6156494;23;20067;-93
2022/01/26 00:43:50;;;;;;;88.75;35.75;;;3.00;99.90;;;;;;6113665;23;20009;-95
2022/01/26 00:46:16;;;;;;;74.57;30.55;;;2.90;99.90;;;;;;6118917;23;20307;-95
2022/01/26 00:48:43;;;;;;;84.55;34.85;;;2.90;99.90;;;;;;6134447;23;20017;-93
2022/01/26 00:51:09;;;;;;;49.25;18.23;;;3.00;99.90;;;;;;6130451;23;20075;-95
2022/01/26 00:53:44;;;;;;;81.38;34.45;;;3.00;99.90;;;;;;6155755;23;20019;-94
2022/01/26 00:56:11;;;;;;;85.47;31.60;;;3.00;99.90;;;;;;6158109;23;20033;-95
2022/01/26 00:58:46;;;;;;;73.40;27.90;;;3.10;99.90;;;;;;6154829;23;20075;-95
2022/01/26 01:01:12;;;;;;;79.95;31.35;;;3.10;99.90;;;;;;6127033;23;20037;-95
2022/01/26 01:03:42;;;;;;;90.30;34.33;;;3.10;99.90;;;;;;6086958;23;20020;-95
2022/01/26 01:06:18;;;;;;;66.93;27.33;;;3.00;99.90;;;;;;6132423;23;20059;-94
2022/01/26 01:08:47;;;;;;;73.82;28.52;;;3.00;99.90;;;;;;6156940;23;20067;-93
2022/01/26 01:11:13;;;;;;;77.78;30.65;;;3.10;99.90;;;;;;6155925;23;20027;-94
2022/01/26 01:13:40;;;;;;;92.70;36.28;;;3.10;99.90;;;;;;6143155;23;20001;-93
2022/01/26 01:16:07;;;;;;;75.80;30.83;;;3.00;99.90;;;;;;6156715;23;20013;-94
2022/01/26 01:18:47;;;;;;;75.75;29.10;;;2.90;99.90;;;;;;6153565;23;20025;-96
2022/01/26 01:29:26;;;;;;;75.32;28.10;;;3.00;99.90;;;;;;6157508;23;20048;-95
2022/01/26 01:31:54;;;;;;;79.63;29.55;;;3.00;99.90;;;;;;6132023;23;20016;-95
2022/01/26 01:34:26;;;;;;;77.28;30.10;;;3.00;99.90;;;;;;6154905;23;20020;-95
2022/01/26 01:37:01;;;;;;;76.20;30.52;;;3.00;99.90;;;;;;6157088;23;20020;-94
2022/01/26 01:39:29;;;;;;;68.60;26.83;;;2.90;99.90;;;;;;6114488;23;20452;-94
2022/01/26 01:41:55;;;;;;;62.95;22.85;;;3.00;99.90;;;;;;6137751;23;20533;-94
2022/01/26 01:44:21;;;;;;;84.22;32.17;;;2.90;99.90;;;;;;6152076;23;20029;-94
2022/01/26 01:46:47;;;;;;;74.55;27.25;;;3.00;99.90;;;;;;6154185;23;20013;-94
2022/01/26 01:49:16;;;;;;;74.20;25.83;;;3.00;99.90;;;;;;6140584;23;20619;-95
2022/01/26 01:51:48;;;;;;;79.88;27.73;;;3.00;99.90;;;;;;6107119;23;20013;-95
2022/01/26 01:54:21;;;;;;;77.85;29.52;;;3.00;99.90;;;;;;6143565;23;20560;-95
2022/01/26 01:56:51;;;;;;;77.55;30.27;;;2.90;99.90;;;;;;6153014;23;20365;-94
2022/01/26 01:59:21;;;;;;;67.28;23.17;;;2.90;99.90;;;;;;6139432;23;20064;-94
2022/01/26 02:01:49;;;;;;;81.15;28.95;;;2.70;99.90;;;;;;6112994;23;20020;-94
2022/01/26 02:04:15;;;;;;;71.57;29.23;;;3.10;99.90;;;;;;6128901;23;20009;-95
2022/01/26 02:06:45;;;;;;;69.50;26.23;;;3.10;99.90;;;;;;6103151;23;20017;-95
2022/01/26 02:09:14;;;;;;;77.70;26.67;;;3.00;99.90;;;;;;6168502;23;20084;-95
2022/01/26 02:11:44;;;;;;;75.07;27.88;;;3.00;99.90;;;;;;6114845;23;20138;-94
2022/01/26 02:14:32;;;;;;;90.22;34.92;;;2.80;99.90;;;;;;6121375;23;20020;-94
2022/01/26 02:55:43;;;;;;;78.93;30.67;;;2.90;99.90;;;;;;6144569;23;20459;-94
2022/01/26 03:01:34;;;;;;;88.15;31.65;;;2.90;99.90;;;;;;6158465;23;20464;-93
2022/01/26 03:04:40;;;;;;;84.05;31.70;;;2.90;99.90;;;;;;6157951;23;20121;-96
2022/01/26 03:07:15;;;;;;;75.55;28.65;;;2.90;99.90;;;;;;6145672;23;20337;-89
2022/01/26 03:09:49;;;;;;;90.57;30.80;;;3.00;99.90;;;;;;6120776;23;20017;-89
2022/01/26 03:12:26;;;;;;;86.25;32.25;;;2.90;99.90;;;;;;6172368;23;20021;-88
2022/01/26 03:14:58;;;;;;;80.78;29.83;;;2.90;99.90;;;;;;6155198;23;20009;-89
2022/01/26 03:20:21;;;;;;;90.00;36.65;;;2.90;99.90;;;;;;6092889;23;20024;-90
2022/01/26 03:35:48;;;;;;;86.72;30.10;;;2.80;99.90;;;;;;6143211;23;20063;-89
2022/01/26 03:38:55;;;;;;;80.65;31.70;;;2.80;99.90;;;;;;6147884;23;20036;-89
2022/01/26 03:43:49;;;;;;;93.70;35.38;;;2.70;99.90;;;;;;6113005;23;20016;-89
2022/01/26 03:46:15;;;;;;;72.78;28.88;;;2.70;99.90;;;;;;6161327;23;20013;-90
2022/01/26 03:48:44;;;;;;;77.35;26.52;;;2.70;99.90;;;;;;6149670;23;20012;-89
2022/01/26 03:51:09;;;;;;;89.70;33.97;;;2.70;99.90;;;;;;6146701;23;20029;-87
2022/01/26 03:53:35;;;;;;;92.30;36.58;;;2.80;99.90;;;;;;6135787;23;20519;-87
2022/01/26 03:56:01;;;;;;;48.72;20.08;;;2.70;99.90;;;;;;6126238;23;20032;-87
2022/01/26 03:58:27;;;;;;;85.75;28.90;;;2.70;99.90;;;;;;6133943;23;20071;-88
2022/01/26 04:01:00;;;;;;;79.22;27.45;;;2.80;99.90;;;;;;6143815;23;20096;-87
2022/01/26 04:03:26;;;;;;;72.55;24.85;;;2.80;99.90;;;;;;6127693;23;20013;-90
2022/01/26 04:05:52;;;;;;;108.53;38.17;;;2.70;99.90;;;;;;6134131;23;20024;-88
2022/01/26 04:08:28;;;;;;;119.93;42.53;;;2.70;99.90;;;;;;6150033;23;20104;-88
2022/01/26 04:13:28;;;;;;;128.73;46.05;;;2.70;99.90;;;;;;6120427;23;20342;-88
2022/01/26 04:16:00;;;;;;;69.30;21.15;;;2.70;99.90;;;;;;6151660;23;20005;-88
2022/01/26 04:18:33;;;;;;;97.05;35.78;;;2.60;99.90;;;;;;6146436;23;20009;-87
2022/01/26 04:21:04;;;;;;;121.97;44.22;;;2.70;99.90;;;;;;6126965;23;20009;-88
2022/01/26 04:26:06;;;;;;;97.57;33.60;;;2.70;99.90;;;;;;6134083;23;20017;-87
2022/01/26 04:28:40;;;;;;;126.00;42.20;;;2.70;99.90;;;;;;6094727;23;20046;-88
2022/01/26 04:31:07;;;;;;;120.45;41.53;;;2.70;99.90;;;;;;6140004;23;20438;-89
2022/01/26 04:33:34;;;;;;;110.53;40.55;;;2.60;99.90;;;;;;6146006;23;20013;-90
2022/01/26 04:36:02;;;;;;;151.23;52.80;;;2.80;99.90;;;;;;6148811;23;20473;-88
2022/01/26 04:38:37;;;;;;;117.43;37.85;;;2.70;99.90;;;;;;6148496;23;20017;-88
2022/01/26 04:43:43;;;;;;;134.32;44.72;;;2.60;99.90;;;;;;6105265;23;20021;-87
2022/01/26 04:46:15;;;;;;;134.30;43.63;;;2.60;99.90;;;;;;6162639;23;20472;-90
2022/01/26 04:48:51;;;;;;;162.30;57.90;;;2.70;99.90;;;;;;6147321;23;20507;-91
2022/01/26 04:51:16;;;;;;;136.93;48.33;;;2.60;99.90;;;;;;6135504;23;20005;-88
2022/01/26 04:53:42;;;;;;;134.25;39.85;;;2.60;99.90;;;;;;6125248;23;20020;-88
2022/01/26 04:56:08;;;;;;;97.53;31.52;;;2.60;99.90;;;;;;6146345;23;20515;-88
2022/01/26 04:58:36;;;;;;;107.50;34.88;;;2.70;99.90;;;;;;6109727;23;20144;-88
2022/01/26 05:01:04;;;;;;;92.90;28.92;;;2.70;99.90;;;;;;6131108;23;20105;-88
2022/01/26 05:03:32;;;;;;;123.55;40.90;;;2.60;99.90;;;;;;6124227;23;20024;-88
2022/01/26 05:05:58;;;;;;;118.50;39.78;;;2.60;99.90;;;;;;6149490;23;20009;-89
2022/01/26 05:08:27;;;;;;;150.00;50.67;;;2.60;99.90;;;;;;6147291;23;20017;-88
2022/01/26 05:10:55;;;;;;;135.00;43.97;;;2.60;99.90;;;;;;6149933;23;20017;-87
2022/01/26 05:13:21;;;;;;;145.32;47.97;;;2.70;99.90;;;;;;6150704;23;20009;-87
2022/01/26 05:15:47;;;;;;;104.70;33.35;;;2.60;99.90;;;;;;6144788;23;20510;-89
2022/01/26 05:18:13;;;;;;;145.93;49.13;;;2.70;99.90;;;;;;6103864;23;20013;-88
2022/01/26 05:20:41;;;;;;;108.90;36.38;;;2.60;99.90;;;;;;6133836;23;20009;-88
2022/01/26 05:23:08;;;;;;;122.30;38.92;;;2.60;99.90;;;;;;6107715;23;20022;-88
2022/01/26 05:25:40;;;;;;;133.98;47.85;;;2.70;99.90;;;;;;6106713;23;20345;-90
2022/01/26 05:28:06;;;;;;;147.02;52.35;;;2.60;99.90;;;;;;6151433;23;20020;-87
2022/01/26 05:30:31;;;;;;;130.38;45.15;;;2.60;99.90;;;;;;6113529;23;20373;-88
2022/01/26 05:33:00;;;;;;;154.68;51.38;;;2.60;99.90;;;;;;6114400;23;20063;-89
2022/01/26 05:35:30;;;;;;;146.23;51.97;;;2.60;99.90;;;;;;6114550;23;20013;-88
2022/01/26 05:38:01;;;;;;;136.15;47.90;;;2.50;99.90;;;;;;6153029;23;20017;-88
2022/01/26 05:40:27;;;;;;;116.25;37.03;;;2.60;99.90;;;;;;6102522;23;20014;-87
2022/01/26 05:42:57;;;;;;;150.32;49.03;;;2.60;99.90;;;;;;6095240;23;20016;-88
2022/01/26 05:45:35;;;;;;;150.68;53.42;;;2.60;99.90;;;;;;6147847;23;20084;-88
2022/01/26 05:48:09;;;;;;;91.13;28.77;;;2.50;99.90;;;;;;6128130;23;20049;-87
2022/01/26 05:50:36;;;;;;;124.75;40.58;;;2.60;99.90;;;;;;6117395;23;20079;-88
2022/01/26 05:53:05;;;;;;;149.80;51.55;;;2.50;99.90;;;;;;6152085;23;20702;-88
2022/01/26 05:55:33;;;;;;;136.73;43.05;;;2.50;99.90;;;;;;6141062;23;20013;-88
2022/01/26 05:58:01;;;;;;;145.65;48.58;;;2.50;99.90;;;;;;6114862;23;20013;-88
2022/01/26 06:00:34;;;;;;;158.32;55.35;;;2.60;99.90;;;;;;6113322;23;20017;-89
2022/01/26 06:03:03;;;;;;;132.75;42.85;;;2.60;99.90;;;;;;6136987;23;20032;-88
2022/01/26 06:05:29;;;;;;;145.20;43.63;;;2.70;99.90;;;;;;6074074;23;20009;-89
2022/01/26 06:07:59;;;;;;;74.72;25.88;;;2.70;99.90;;;;;;6159920;23;20024;-88
2022/01/26 06:10:35;;;;;;;116.88;35.63;;;2.60;99.90;;;;;;6138539;23;20020;-89
2022/01/26 06:13:01;;;;;;;;;;;2.60;99.90;;;;;;6113179;23;20028;-87
2022/01/26 06:15:29;;;;;;;136.40;46.13;;;2.60;99.90;;;;;;6168368;23;20356;-89
2022/01/26 06:17:55;;;;;;;125.68;40.72;;;2.70;99.90;;;;;;6100533;23;20013;-87
2022/01/26 06:20:23;;;;;;;102.22;30.17;;;2.60;99.90;;;;;;6086242;23;20088;-89
2022/01/26 06:22:52;;;;;;;116.97;35.38;;;2.60;99.90;;;;;;6124572;23;20637;-89
2022/01/26 06:25:21;;;;;;;72.28;24.48;;;2.50;99.90;;;;;;6136460;23;20005;-87
2022/01/26 06:27:52;;;;;;;125.57;41.25;;;2.50;99.90;;;;;;6105211;23;20619;-89
2022/01/26 06:30:21;;;;;;;121.88;40.17;;;2.50;99.90;;;;;;6125880;23;20868;-89
2022/01/26 06:32:55;;;;;;;124.07;37.83;;;2.60;99.90;;;;;;6101077;23;20009;-90
2022/01/26 06:35:26;;;;;;;93.70;28.92;;;2.60;99.90;;;;;;6098625;23;20013;-89
2022/01/26 06:37:52;;;;;;;103.78;31.73;;;2.60;99.90;;;;;;6132744;23;20442;-89
2022/01/26 06:40:18;;;;;;;133.57;43.28;;;2.50;99.90;;;;;;6136062;23;20088;-91
2022/01/26 06:43:13;;;;;;;131.55;45.17;;;2.60;99.90;;;;;;6099884;23;20707;-89
2022/01/26 06:45:51;;;;;;;121.93;38.05;;;2.70;99.90;;;;;;6116652;23;20013;-89
2022/01/26 06:48:41;;;;;;;150.32;47.70;;;2.60;99.90;;;;;;6099558;23;20547;-89
2022/01/26 06:51:10;;;;;;;55.83;17.88;;;2.50;99.90;;;;;;6126444;23;20112;-87
2022/01/26 06:53:44;;;;;;;67.07;22.33;;;2.50;99.90;;;;;;6074513;23;20017;-88
2022/01/26 06:56:13;;;;;;;91.63;29.55;;;2.50;99.90;;;;;;6119788;23;20011;-89
2022/01/26 06:58:42;;;;;;;142.25;43.25;;;2.50;99.90;;;;;;6118101;23;20019;-89
2022/01/26 07:01:20;;;;;;;85.05;30.77;;;2.60;99.90;;;;;;6058790;23;20071;-90
2022/01/26 07:04:10;;;;;;;123.35;32.20;;;2.50;99.90;;;;;;6118590;23;20017;-89
2022/01/26 07:06:38;;;;;;;114.15;34.47;;;2.50;99.90;;;;;;6141987;23;20665;-89
2022/01/26 07:09:07;;;;;;;118.70;36.47;;;2.50;99.90;;;;;;6094826;23;20009;-88
2022/01/26 07:11:37;;;;;;;118.05;38.92;;;2.40;99.90;;;;;;6090529;23;20040;-89
2022/01/26 07:14:08;;;;;;;130.82;39.38;;;2.50;99.90;;;;;;6077509;23;20100;-89
2022/01/26 07:22:19;;;;;;;121.03;40.40;;;2.40;99.90;;;;;;6153575;23;20031;-88
2022/01/26 07:24:51;;;;;;;134.85;42.15;;;2.40;99.90;;;;;;6091002;23;20019;-88
2022/01/26 07:27:17;;;;;;;143.93;45.50;;;2.40;99.90;;;;;;6121978;23;20513;-88
2022/01/26 07:29:42;;;;;;;116.82;36.67;;;2.40;99.90;;;;;;6096177;23;20007;-90
2022/01/26 07:32:08;;;;;;;131.65;37.28;;;2.40;99.90;;;;;;6115461;23;20084;-89
2022/01/26 07:34:36;;;;;;;143.70;44.78;;;2.40;99.90;;;;;;6098340;23;20017;-89
2022/01/26 07:37:08;;;;;;;116.53;35.97;;;2.40;99.90;;;;;;6098111;23;20414;-88
2022/01/26 07:39:59;;;;;;;133.77;40.85;;;2.50;99.90;;;;;;6122932;23;20009;-88
2022/01/26 07:42:25;;;;;;;116.20;37.22;;;2.50;99.90;;;;;;6163720;23;20015;-88
2022/01/26 07:44:57;;;;;;;130.15;42.85;;;2.50;99.90;;;;;;6136566;23;20001;-88
2022/01/26 07:47:25;;;;;;;128.90;38.30;;;2.60;99.90;;;;;;6110853;23;20009;-91
2022/01/26 07:50:14;;;;;;;129.02;37.67;;;2.60;99.90;;;;;;6112895;23;20009;-89
2022/01/26 07:52:42;;;;;;;141.18;44.00;;;2.60;99.90;;;;;;6138332;23;20014;-90
2022/01/26 07:55:19;;;;;;;116.22;28.55;;;2.60;99.90;;;;;;6127109;23;20001;-90
2022/01/26 07:58:01;;;;;;;116.50;33.30;;;2.60;99.90;;;;;;6105610;23;20019;-89
2022/01/26 08:00:32;;;;;;;113.10;34.00;;;2.50;99.90;;;;;;6133215;23;20020;-89
2022/01/26 08:03:00;;;;;;;57.95;22.05;;;2.40;99.90;;;;;;6131416;23;20056;-89
2022/01/26 08:05:28;;;;;;;115.55;32.72;;;2.50;99.90;;;;;;6126958;23;20005;-89
2022/01/26 08:07:55;;;;;;;92.03;28.10;;;2.60;99.90;;;;;;6126452;23;20446;-89
2022/01/26 08:10:29;;;;;;;120.10;35.83;;;2.60;99.90;;;;;;6113296;23;20048;-89
2022/01/26 08:13:02;;;;;;;126.78;39.92;;;2.60;99.90;;;;;;6102271;23;20116;-89
2022/01/26 08:15:31;;;;;;;148.85;43.88;;;2.50;99.90;;;;;;6119433;23;20483;-89
2022/01/26 08:17:57;;;;;;;140.02;43.65;;;2.60;99.90;;;;;;6097919;23;20472;-89
2022/01/26 08:20:25;;;;;;;144.70;45.10;;;2.60;99.90;;;;;;6150304;23;20470;-89
2022/01/26 08:22:56;;;;;;;113.45;32.22;;;2.50;99.90;;;;;;6113974;23;20076;-91
2022/01/26 08:25:26;;;;;;;121.13;38.00;;;2.50;99.90;;;;;;6123976;23;20342;-89
2022/01/26 08:27:58;;;;;;;116.65;33.17;;;2.60;99.90;;;;;;6134645;23;20524;-89
2022/01/26 08:30:24;;;;;;;55.58;16.63;;;2.50;99.90;;;;;;6120390;23;20009;-87
2022/01/26 08:32:50;;;;;;;89.88;26.63;;;2.60;99.90;;;;;;6127060;23;20009;-88
2022/01/26 08:35:16;;;;;;;106.45;32.90;;;2.70;99.90;;;;;;6151034;23;20301;-88
2022/01/26 08:37:44;;;;;;;91.30;26.33;;;2.50;99.90;;;;;;6137311;23;20021;-88
2022/01/26 08:40:11;;;;;;;141.40;41.80;;;2.50;99.90;;;;;;6069802;23;20029;-89
2022/01/26 08:42:37;;;;;;;135.77;43.63;;;2.50;99.90;;;;;;6162772;23;20023;-88
2022/01/26 08:45:04;;;;;;;135.80;40.30;;;2.50;99.90;;;;;;6152840;23;20481;-88
2022/01/26 08:47:37;;;;;;;99.90;30.88;;;2.50;99.90;;;;;;6148456;23;20080;-89
2022/01/26 08:50:09;;;;;;;108.72;33.50;;;2.50;99.90;;;;;;6150804;23;20017;-89
2022/01/26 08:52:37;;;;;;;141.00;44.55;;;2.60;99.90;;;;;;6153818;23;20013;-88
2022/01/26 08:55:03;;;;;;;81.32;22.65;;;2.60;99.90;;;;;;6151847;23;20028;-88
2022/01/26 08:57:29;;;;;;;68.90;20.50;;;2.60;99.90;;;;;;6139307;23;20445;-88
2022/01/26 08:59:56;;;;;;;113.50;33.97;;;2.60;99.90;;;;;;6150733;23;20020;-88
2022/01/26 09:02:22;;;;;;;104.32;29.80;;;2.60;99.90;;;;;;6154103;23;20143;-87
2022/01/26 09:04:52;;;;;;;129.23;37.70;;;2.60;99.90;;;;;;6152543;23;20036;-90
2022/01/26 09:07:20;;;;;;;121.97;37.15;;;2.70;99.90;;;;;;6151782;23;20096;-89
2022/01/26 09:09:46;;;;;;;127.60;35.08;;;2.50;99.90;;;;;;6139091;23;20013;-88
2022/01/26 09:12:17;;;;;;;104.47;29.73;;;2.60;99.90;;;;;;6151123;23;20016;-88
2022/01/26 09:14:46;;;;;;;130.55;39.17;;;2.70;99.90;;;;;;6152037;23;20021;-87
2022/01/26 09:17:13;;;;;;;120.32;36.13;;;2.50;99.90;;;;;;6129580;23;20477;-88
2022/01/26 09:19:52;;;;;;;65.70;20.17;;;2.60;99.90;;;;;;6151492;23;20112;-88
2022/01/26 09:22:19;;;;;;;126.40;34.78;;;2.70;99.90;;;;;;6128663;23;20317;-88
2022/01/26 09:24:47;;;;;;;103.35;29.77;;;2.50;99.90;;;;;;6112708;23;20812;-87
2022/01/26 09:27:24;;;;;;;123.38;31.88;;;2.60;99.90;;;;;;6058862;23;20096;-88
2022/01/26 09:29:55;;;;;;;78.35;23.45;;;2.60;99.90;;;;;;6095426;23;20010;-88
2022/01/26 09:32:35;;;;;;;122.03;35.67;;;2.60;99.90;;;;;;6105737;23;20012;-88
2022/01/26 09:35:01;;;;;;;68.57;21.80;;;2.70;99.90;;;;;;6123448;23;20006;-88
2022/01/26 09:37:27;;;;;;;81.78;22.88;;;2.60;99.90;;;;;;6130744;23;20051;-89
2022/01/26 09:40:01;;;;;;;65.15;20.70;;;2.60;99.90;;;;;;6134827;23;20013;-89
2022/01/26 09:42:28;;;;;;;124.43;38.70;;;2.50;99.90;;;;;;6112244;23;20013;-89
2022/01/26 09:44:54;;;;;;;114.05;30.63;;;2.60;99.90;;;;;;6143536;23;20013;-89
2022/01/26 09:47:20;;;;;;;74.43;24.75;;;2.60;99.90;;;;;;6115330;23;20442;-89
2022/01/26 09:50:02;;;;;;;80.75;20.95;;;2.70;99.90;;;;;;6117555;23;20072;-89
2022/01/26 09:52:36;;;;;;;107.25;30.92;;;2.60;99.90;;;;;;6139268;23;20032;-89
2022/01/26 09:55:16;;;;;;;106.32;29.98;;;2.60;99.90;;;;;;6125153;23;20009;-89
2022/01/26 09:57:57;;;;;;;128.60;36.72;;;2.70;99.90;;;;;;6087170;23;20045;-89
2022/01/26 10:00:25;;;;;;;157.27;44.67;;;2.70;99.90;;;;;;6066506;23;20085;-89
2022/01/26 10:03:01;;;;;;;113.72;31.98;;;2.70;99.90;;;;;;6089854;23;20453;-89
2022/01/26 10:05:37;;;;;;;156.00;46.40;;;2.80;99.90;;;;;;6137038;23;20087;-88
2022/01/26 10:08:26;;;;;;;120.85;32.97;;;2.70;99.90;;;;;;6145825;23;20017;-89
2022/01/26 10:17:18;;;;;;;149.43;46.20;;;2.80;99.90;;;;;;6134163;23;20028;-88
2022/01/26 10:19:33;;;;;;;137.85;42.83;;;2.80;99.90;;;;;;6174173;23;20028;-89
2022/01/26 10:21:59;;;;;;;70.90;22.83;;;2.80;99.90;;;;;;6111136;23;20020;-89
2022/01/26 10:24:33;;;;;;;127.18;35.58;;;2.80;99.90;;;;;;6144245;23;20322;-89
2022/01/26 10:26:59;;;;;;;89.07;25.38;;;2.90;99.90;;;;;;6139674;23;20009;-89
2022/01/26 10:29:29;;;;;;;116.32;32.67;;;2.90;99.90;;;;;;6130484;23;20514;-90
2022/01/26 10:31:58;;;;;;;106.45;33.83;;;2.80;99.90;;;;;;6144318;23;20013;-88
2022/01/26 10:34:32;;;;;;;78.20;23.85;;;2.80;99.90;;;;;;6113830;23;20016;-90
2022/01/26 10:37:13;;;;;;;77.82;23.35;;;2.80;99.90;;;;;;6088770;23;20323;-89
2022/01/26 10:39:53;;;;;;;74.45;24.50;;;2.80;99.90;;;;;;6074035;23;20500;-89
2022/01/26 10:42:21;;;;;;;96.38;31.85;;;2.80;99.90;;;;;;6152998;23;20084;-89
2022/01/26 10:44:53;;;;;;;80.78;22.13;;;2.80;99.90;;;;;;6141448;23;20011;-92
2022/01/26 10:47:32;;;;;;;130.80;42.22;;;2.80;99.90;;;;;;6114007;23;20032;-89
2022/01/26 10:52:42;;;;;;;130.82;35.05;;;2.90;99.90;;;;;;6158254;23;20069;-89
2022/01/26 10:55:25;;;;;;;107.65;29.63;;;2.90;99.90;;;;;;6090601;23;20028;-89
2022/01/26 10:57:59;;;;;;;87.65;28.05;;;2.90;99.90;;;;;;6126317;23;20028;-89
2022/01/26 11:00:25;;;;;;;84.65;24.52;;;3.00;99.90;;;;;;6060819;23;20068;-88
2022/01/26 11:02:57;;;;;;;130.25;39.72;;;2.80;99.90;;;;;;6134015;23;20013;-91
2022/01/26 11:05:23;;;;;;;83.63;26.02;;;3.00;99.90;;;;;;6152769;23;20013;-89
2022/01/26 11:07:49;;;;;;;77.30;23.50;;;3.00;99.90;;;;;;6120642;23;20017;-89
2022/01/26 11:10:23;;;;;;;86.95;28.05;;;3.00;99.90;;;;;;6128769;23;20618;-90
2022/01/26 11:13:03;;;;;;;74.53;20.85;;;3.00;99.90;;;;;;6127217;23;20341;-89
2022/01/26 11:15:36;;;;;;;95.85;28.90;;;3.00;99.90;;;;;;6136268;23;20013;-91
2022/01/26 11:18:33;;;;;;;128.85;40.55;;;3.00;99.90;;;;;;6139459;23;20013;-88
2022/01/26 11:20:58;;;;;;;;;;;2.90;99.90;;;;;;6173985;23;20009;-89
2022/01/26 11:23:35;;;;;;;103.03;31.27;;;3.00;99.90;;;;;;6159069;23;19978;-90
2022/01/26 11:26:01;;;;;;;128.32;38.33;;;3.10;99.90;;;;;;6143241;23;20009;-89
2022/01/26 11:28:31;;;;;;;75.10;26.35;;;3.00;99.90;;;;;;6129434;23;20115;-89
2022/01/26 11:31:03;;;;;;;73.07;18.67;;;3.10;99.90;;;;;;6137933;23;20019;-90
2022/01/26 11:33:30;;;;;;;85.55;25.40;;;3.00;99.90;;;;;;6120164;23;20496;-88
2022/01/26 11:35:57;;;;;;;65.93;19.73;;;3.00;99.90;;;;;;6118426;23;20009;-89
2022/01/26 11:46:56;;;;;;;108.18;30.92;;;3.10;99.90;;;;;;6141856;23;20048;-90
2022/01/26 11:49:36;;;;;;;42.08;19.08;;;3.10;99.90;;;;;;6136347;23;20013;-89
2022/01/26 11:52:06;;;;;;;63.65;21.08;;;3.10;99.90;;;;;;6135746;23;20018;-89
2022/01/26 11:54:50;;;;;;;82.10;27.20;;;3.10;99.90;;;;;;6093599;23;20461;-89
2022/01/26 11:57:18;;;;;;;118.15;32.45;;;3.10;99.90;;;;;;6140700;23;20048;-92
2022/01/26 11:59:59;;;;;;;89.13;24.80;;;3.00;99.90;;;;;;6120499;23;20016;-89
2022/01/26 12:05:14;;;;;;;83.72;21.80;;;3.30;99.90;;;;;;6155798;23;20023;-88
2022/01/26 12:07:58;;;;;;;97.70;25.33;;;3.10;99.90;;;;;;6125943;23;20529;-91
2022/01/26 12:10:31;;;;;;;119.97;34.83;;;3.10;99.90;;;;;;6128605;23;20015;-89
2022/01/26 12:13:08;;;;;;;122.78;35.55;;;3.10;99.90;;;;;;6153974;23;20013;-88
2022/01/26 12:15:54;;;;;;;89.68;26.20;;;3.10;99.90;;;;;;6150947;23;20337;-89
2022/01/26 12:18:37;;;;;;;64.90;19.87;;;3.20;99.90;;;;;;6144295;23;20525;-92
2022/01/26 12:43:53;;;;;;;86.85;26.67;;;3.20;99.90;;;;;;6145941;23;20036;-89
2022/01/26 12:46:31;;;;;;;107.80;32.45;;;3.20;99.90;;;;;;6093763;23;20037;-89
2022/01/26 12:49:01;;;;;;;94.75;30.67;;;3.20;99.90;;;;;;6116805;23;20008;-91
2022/01/26 12:51:30;;;;;;;115.85;36.05;;;3.20;99.90;;;;;;6131363;23;20005;-89
2022/01/26 12:54:01;;;;;;;111.32;32.33;;;3.30;99.90;;;;;;6150429;23;20075;-89
2022/01/26 12:56:33;;;;;;;103.63;29.73;;;3.30;99.90;;;;;;6086884;23;20018;-89
2022/01/26 12:59:35;;;;;;;79.80;25.17;;;3.30;99.90;;;;;;6077343;23;20013;-90
2022/01/26 13:02:06;;;;;;;101.38;29.33;;;3.20;99.90;;;;;;6158761;23;20437;-89
2022/01/26 13:04:33;;;;;;;106.35;34.67;;;3.20;99.90;;;;;;6154546;23;20088;-90
2022/01/26 13:07:03;;;;;;;117.85;32.78;;;3.30;99.90;;;;;;6111925;23;20005;-89
2022/01/26 13:09:37;;;;;;;126.13;37.90;;;3.30;99.90;;;;;;6154962;23;20013;-89
2022/01/26 13:12:03;;;;;;;107.40;32.00;;;3.20;99.90;;;;;;6153189;23;20013;-89
2022/01/26 13:14:37;;;;;;;67.40;20.02;;;3.20;99.90;;;;;;6141653;23;20586;-89
2022/01/26 13:28:22;;;;;;;75.60;23.73;;;3.30;99.90;;;;;;6156665;23;20503;-89
2022/01/26 13:31:24;;;;;;;58.17;16.20;;;3.20;99.90;;;;;;6156729;23;20016;-90
2022/01/26 13:39:50;;;;;;;66.65;20.67;;;3.30;99.90;;;;;;6136577;23;20005;-89
2022/01/26 13:53:55;;;;;;;80.82;27.50;;;3.30;99.90;;;;;;6136427;23;20005;-90
2022/01/26 13:56:51;;;;;;;55.47;18.05;;;3.30;99.90;;;;;;6084126;23;20462;-90
2022/01/26 14:01:56;;;;;;;70.45;20.48;;;3.20;99.90;;;;;;6137845;23;20013;-89
2022/01/26 14:04:25;;;;;;;48.67;17.55;;;3.30;99.90;;;;;;6125069;23;20013;-89
2022/01/26 14:07:03;;;;;;;77.55;22.02;;;3.40;99.90;;;;;;6136726;23;20013;-89
2022/01/26 14:09:31;;;;;;;71.82;21.05;;;3.30;99.90;;;;;;6126703;23;20012;-88
2022/01/26 14:12:01;;;;;;;95.63;27.05;;;3.20;99.90;;;;;;6122377;23;20092;-90
2022/01/26 14:14:37;;;;;;;46.83;17.08;;;3.30;99.90;;;;;;6111993;23;20476;-89
2022/01/26 14:17:23;;;;;;;70.80;23.98;;;3.30;99.90;;;;;;6057245;23;20005;-89
2022/01/26 14:20:09;;;;;;;57.38;15.35;;;3.30;99.90;;;;;;6130725;23;20012;-88
2022/01/26 14:22:49;;;;;;;77.47;25.15;;;3.40;99.90;;;;;;6153491;23;20831;-89
2022/01/26 14:25:27;;;;;;;86.45;24.85;;;3.30;99.90;;;;;;6140743;23;20024;-89
2022/01/26 14:28:07;;;;;;;31.15;10.45;;;3.30;99.90;;;;;;6127555;23;20009;-89
2022/01/26 14:30:56;;;;;;;81.20;21.88;;;3.20;99.90;;;;;;6083072;23;20013;-90
2022/01/26 14:50:55;;;;;;;28.02;11.05;;;3.30;99.90;;;;;;6129430;23;20115;-91
2022/01/26 15:33:23;;;;;;;53.10;18.42;;;3.10;99.90;;;;;;6127246;23;20063;-89
2022/01/26 15:50:13;;;;;;;77.05;25.75;;;3.20;99.90;;;;;;6143784;23;20382;-88
2022/01/26 15:58:24;;;;;;;42.47;16.15;;;3.30;99.90;;;;;;6083640;23;20039;-89
2022/01/26 16:06:59;;;;;;;77.55;22.00;;;3.10;99.90;;;;;;6143470;23;20091;-88
2022/01/26 16:12:56;;;;;;;63.80;21.88;;;3.00;99.90;;;;;;6139630;23;20566;-90
2022/01/26 16:21:08;;;;;;;40.72;16.30;;;3.10;99.90;;;;;;6117622;23;20541;-87
2022/01/26 16:26:48;;;;;;;49.70;16.70;;;3.10;99.90;;;;;;6134695;23;20127;-89
2022/01/26 17:11:06;;;;;;;37.45;12.75;;;3.00;99.90;;;;;;6130808;23;20083;-89
2022/01/26 17:11:23;;;;;;;66.10;22.33;;;3.10;99.90;;;;;;6156663;23;20047;-88
2022/01/26 17:25:10;;;;;;;80.00;23.23;;;3.00;99.90;;;;;;6124013;23;20092;-87
2022/01/26 18:16:29;;;;;;;58.25;21.58;;;3.00;99.90;;;;;;6152429;23;20009;-88
2022/01/26 18:32:52;;;;;;;41.17;11.75;;;2.90;99.90;;;;;;6141328;23;20326;-88
2022/01/26 18:46:23;;;;;;;56.75;18.92;;;3.00;99.90;;;;;;6097627;23;20016;-89
2022/01/26 18:51:43;;;;;;;45.65;14.95;;;2.80;99.90;;;;;;6151140;23;20016;-88
2022/01/26 18:54:13;;;;;;;63.10;20.83;;;2.90;99.90;;;;;;6121275;23;20104;-88
2022/01/26 18:56:41;;;;;;;50.50;16.58;;;2.90;99.90;;;;;;6157680;23;20513;-88
2022/01/26 18:59:14;;;;;;;73.72;22.85;;;2.80;99.90;;;;;;6117236;23;20024;-89
2022/01/26 19:01:41;;;;;;;74.57;24.02;;;2.80;99.90;;;;;;6085965;23;20569;-88
2022/01/26 19:04:15;;;;;;;94.82;26.50;;;2.80;99.90;;;;;;6110180;23;20009;-89
2022/01/26 19:06:50;;;;;;;73.60;22.00;;;2.70;99.90;;;;;;6087586;23;20012;-87
2022/01/26 19:09:29;;;;;;;56.10;20.15;;;2.80;99.90;;;;;;6141638;23;20488;-90
2022/01/26 19:11:55;;;;;;;65.57;21.13;;;2.90;99.90;;;;;;6111231;23;20017;-88
2022/01/26 19:14:33;;;;;;;84.47;23.92;;;2.80;99.90;;;;;;6150821;23;20149;-88
2022/01/26 19:17:05;;;;;;;73.47;24.17;;;2.80;99.90;;;;;;6152072;23;20016;-87
2022/01/26 19:24:57;;;;;;;50.58;17.00;;;2.70;99.90;;;;;;6169397;23;20088;-88
2022/01/26 19:27:45;;;;;;;65.65;22.60;;;2.80;99.90;;;;;;6126417;23;20441;-89
2022/01/26 19:44:05;;;;;;;53.42;19.05;;;2.90;99.90;;;;;;6155324;23;20013;-88
2022/01/26 19:52:22;;;;;;;55.92;16.45;;;2.80;99.90;;;;;;6146774;23;20024;-89